sensor_id;sensor_type;location;lat;lon;timestamp;temperature;humidity
7494;DHT22;3788;49.902;8.590;2022-10-13T00:00:40;10.90;99.90
7494;DHT22;3788;49.902;8.590;2022-10-13T00:03:07;10.90;99.90
7494;DHT22;3788;49.902;8.590;2022-10-13T00:05:34;10.90;99.90
7494;DHT22;3788;49.902;8.590;2022-10-13T00:08:05;10.90;99.90
7494;DHT22;3788;49.902;8.590;2022-10-13T00:10:35;10.90;99.90
7494;DHT22;3788;49.902;8.590;2022-10-13T00:13:02;10.80;99.90
7494;DHT22;3788;49.902;8.590;2022-10-13T00:15:30;10.70;99.90
7494;DHT22;3788;49.902;8.590;2022-10-13T00:17:58;10.60;99.90
7494;DHT22;3788;49.902;8.590;2022-10-13T00:20:25;10.60;99.90
7494;DHT22;3788;49.902;8.590;2022-10-13T00:22:51;10.50;99.90
7494;DHT22;3788;49.902;8.590;2022-10-13T00:25:18;10.40;99.90
7494;DHT22;3788;49.902;8.590;2022-10-13T00:27:45;10.40;99.90
7494;DHT22;3788;49.902;8.590;2022-10-13T00:30:12;10.40;99.90
7494;DHT22;3788;49.902;8.590;2022-10-13T00:32:38;10.50;99.90
7494;DHT22;3788;49.902;8.590;2022-10-13T00:35:07;10.50;99.90
7494;DHT22;3788;49.902;8.590;2022-10-13T00:37:34;10.60;99.90
7494;DHT22;3788;49.902;8.590;2022-10-13T00:40:00;10.70;99.90
7494;DHT22;3788;49.902;8.590;2022-10-13T00:42:28;10.80;99.90
7494;DHT22;3788;49.902;8.590;2022-10-13T00:45:05;10.90;99.90
7494;DHT22;3788;49.902;8.590;2022-10-13T00:47:35;10.90;99.90
7494;DHT22;3788;49.902;8.590;2022-10-13T00:50:04;11.00;99.90
7494;DHT22;3788;49.902;8.590;2022-10-13T00:52:32;11.00;99.90
7494;DHT22;3788;49.902;8.590;2022-10-13T00:55:00;11.10;99.90
7494;DHT22;3788;49.902;8.590;2022-10-13T00:57:28;11.20;99.90
7494;DHT22;3788;49.902;8.590;2022-10-13T00:59:55;11.20;99.90
7494;DHT22;3788;49.902;8.590;2022-10-13T01:02:24;11.30;99.90
7494;DHT22;3788;49.902;8.590;2022-10-13T01:04:53;11.20;99.90
7494;DHT22;3788;49.902;8.590;2022-10-13T01:07:22;11.30;99.90
7494;DHT22;3788;49.902;8.590;2022-10-13T01:09:50;11.20;99.90
7494;DHT22;3788;49.902;8.590;2022-10-13T01:12:28;11.30;99.90
7494;DHT22;3788;49.902;8.590;2022-10-13T01:15:04;11.30;99.90
7494;DHT22;3788;49.902;8.590;2022-10-13T01:17:36;11.30;99.90
7494;DHT22;3788;49.902;8.590;2022-10-13T01:23:17;11.30;99.90
7494;DHT22;3788;49.902;8.590;2022-10-13T01:26:04;11.30;99.90
7494;DHT22;3788;49.902;8.590;2022-10-13T01:29:00;11.30;99.90
7494;DHT22;3788;49.902;8.590;2022-10-13T01:31:36;11.30;99.90
7494;DHT22;3788;49.902;8.590;2022-10-13T01:34:09;11.20;99.90
7494;DHT22;3788;49.902;8.590;2022-10-13T01:36:44;11.20;99.90
7494;DHT22;3788;49.902;8.590;2022-10-13T01:39:18;11.10;99.90
7494;DHT22;3788;49.902;8.590;2022-10-13T01:41:50;11.10;99.90
7494;DHT22;3788;49.902;8.590;2022-10-13T01:44:21;11.00;99.90
7494;DHT22;3788;49.902;8.590;2022-10-13T01:46:52;11.00;99.90
7494;DHT22;3788;49.902;8.590;2022-10-13T01:49:22;10.90;99.90
7494;DHT22;3788;49.902;8.590;2022-10-13T01:51:51;10.90;99.90
7494;DHT22;3788;49.902;8.590;2022-10-13T01:54:20;10.90;99.90
7494;DHT22;3788;49.902;8.590;2022-10-13T01:56:51;10.80;99.90
7494;DHT22;3788;49.902;8.590;2022-10-13T01:59:19;10.90;99.90
7494;DHT22;3788;49.902;8.590;2022-10-13T02:01:54;10.90;99.90
7494;DHT22;3788;49.902;8.590;2022-10-13T02:04:30;10.90;99.90
7494;DHT22;3788;49.902;8.590;2022-10-13T02:07:04;10.90;99.90
7494;DHT22;3788;49.902;8.590;2022-10-13T02:09:40;11.00;99.90
7494;DHT22;3788;49.902;8.590;2022-10-13T02:12:13;11.00;99.90
7494;DHT22;3788;49.902;8.590;2022-10-13T02:14:43;11.00;99.90
7494;DHT22;3788;49.902;8.590;2022-10-13T02:17:14;11.00;99.90
7494;DHT22;3788;49.902;8.590;2022-10-13T02:19:42;11.10;99.90
7494;DHT22;3788;49.902;8.590;2022-10-13T02:22:10;11.10;99.90
7494;DHT22;3788;49.902;8.590;2022-10-13T02:24:38;11.10;99.90
7494;DHT22;3788;49.902;8.590;2022-10-13T02:27:05;11.20;99.90
7494;DHT22;3788;49.902;8.590;2022-10-13T02:29:33;11.20;99.90
7494;DHT22;3788;49.902;8.590;2022-10-13T02:32:00;11.10;99.90
7494;DHT22;3788;49.902;8.590;2022-10-13T02:34:28;11.10;99.90
7494;DHT22;3788;49.902;8.590;2022-10-13T02:36:55;11.10;99.90
7494;DHT22;3788;49.902;8.590;2022-10-13T02:39:21;11.10;99.90
7494;DHT22;3788;49.902;8.590;2022-10-13T02:41:48;11.00;99.90
7494;DHT22;3788;49.902;8.590;2022-10-13T02:44:15;11.00;99.90
7494;DHT22;3788;49.902;8.590;2022-10-13T02:46:42;11.00;99.90
7494;DHT22;3788;49.902;8.590;2022-10-13T02:49:08;11.00;99.90
7494;DHT22;3788;49.902;8.590;2022-10-13T02:51:37;11.00;99.90
7494;DHT22;3788;49.902;8.590;2022-10-13T02:54:03;10.90;99.90
7494;DHT22;3788;49.902;8.590;2022-10-13T02:56:30;10.90;99.90
7494;DHT22;3788;49.902;8.590;2022-10-13T02:58:57;10.80;99.90
7494;DHT22;3788;49.902;8.590;2022-10-13T03:01:23;10.80;99.90
7494;DHT22;3788;49.902;8.590;2022-10-13T03:03:50;10.80;99.90
7494;DHT22;3788;49.902;8.590;2022-10-13T03:06:17;10.90;99.90
7494;DHT22;3788;49.902;8.590;2022-10-13T03:08:45;10.90;99.90
7494;DHT22;3788;49.902;8.590;2022-10-13T03:11:12;10.90;99.90
7494;DHT22;3788;49.902;8.590;2022-10-13T03:13:39;11.00;99.90
7494;DHT22;3788;49.902;8.590;2022-10-13T03:16:06;11.00;99.90
7494;DHT22;3788;49.902;8.590;2022-10-13T03:18:33;11.00;99.90
7494;DHT22;3788;49.902;8.590;2022-10-13T03:21:02;11.00;99.90
7494;DHT22;3788;49.902;8.590;2022-10-13T03:23:29;11.00;99.90
7494;DHT22;3788;49.902;8.590;2022-10-13T03:25:57;10.90;99.90
7494;DHT22;3788;49.902;8.590;2022-10-13T03:28:24;10.90;99.90
7494;DHT22;3788;49.902;8.590;2022-10-13T03:30:59;10.90;99.90
7494;DHT22;3788;49.902;8.590;2022-10-13T03:33:25;10.90;99.90
7494;DHT22;3788;49.902;8.590;2022-10-13T03:35:52;10.90;99.90
7494;DHT22;3788;49.902;8.590;2022-10-13T03:38:19;10.90;99.90
7494;DHT22;3788;49.902;8.590;2022-10-13T03:40:45;10.90;99.90
7494;DHT22;3788;49.902;8.590;2022-10-13T03:43:14;10.80;99.90
7494;DHT22;3788;49.902;8.590;2022-10-13T03:45:41;10.80;99.90
7494;DHT22;3788;49.902;8.590;2022-10-13T03:48:07;10.80;99.90
7494;DHT22;3788;49.902;8.590;2022-10-13T03:50:34;10.80;99.90
7494;DHT22;3788;49.902;8.590;2022-10-13T03:53:02;10.90;99.90
7494;DHT22;3788;49.902;8.590;2022-10-13T03:55:29;10.90;99.90
7494;DHT22;3788;49.902;8.590;2022-10-13T03:57:56;10.90;99.90
7494;DHT22;3788;49.902;8.590;2022-10-13T04:00:24;10.90;99.90
7494;DHT22;3788;49.902;8.590;2022-10-13T04:02:50;10.90;99.90
7494;DHT22;3788;49.902;8.590;2022-10-13T04:05:17;10.80;99.90
7494;DHT22;3788;49.902;8.590;2022-10-13T04:07:44;10.80;99.90
7494;DHT22;3788;49.902;8.590;2022-10-13T04:10:11;10.80;99.90
7494;DHT22;3788;49.902;8.590;2022-10-13T04:12:37;10.80;99.90
7494;DHT22;3788;49.902;8.590;2022-10-13T04:15:06;10.70;99.90
7494;DHT22;3788;49.902;8.590;2022-10-13T04:17:34;10.70;99.90
7494;DHT22;3788;49.902;8.590;2022-10-13T04:20:01;10.70;99.90
7494;DHT22;3788;49.902;8.590;2022-10-13T04:22:27;10.70;99.90
7494;DHT22;3788;49.902;8.590;2022-10-13T04:24:54;10.70;99.90
7494;DHT22;3788;49.902;8.590;2022-10-13T04:27:21;10.80;99.90
7494;DHT22;3788;49.902;8.590;2022-10-13T04:29:48;10.80;99.90
7494;DHT22;3788;49.902;8.590;2022-10-13T04:32:15;10.80;99.90
7494;DHT22;3788;49.902;8.590;2022-10-13T04:34:43;10.80;99.90
7494;DHT22;3788;49.902;8.590;2022-10-13T04:37:10;10.80;99.90
7494;DHT22;3788;49.902;8.590;2022-10-13T04:39:37;10.80;99.90
7494;DHT22;3788;49.902;8.590;2022-10-13T04:42:04;10.80;99.90
7494;DHT22;3788;49.902;8.590;2022-10-13T04:44:31;10.80;99.90
7494;DHT22;3788;49.902;8.590;2022-10-13T04:46:57;10.80;99.90
7494;DHT22;3788;49.902;8.590;2022-10-13T04:49:25;10.80;99.90
7494;DHT22;3788;49.902;8.590;2022-10-13T04:51:54;10.80;99.90
7494;DHT22;3788;49.902;8.590;2022-10-13T04:54:20;10.80;99.90
7494;DHT22;3788;49.902;8.590;2022-10-13T04:56:47;10.70;99.90
7494;DHT22;3788;49.902;8.590;2022-10-13T04:59:14;10.70;99.90
7494;DHT22;3788;49.902;8.590;2022-10-13T05:01:41;10.60;99.90
7494;DHT22;3788;49.902;8.590;2022-10-13T05:04:09;10.60;99.90
7494;DHT22;3788;49.902;8.590;2022-10-13T05:06:38;10.60;99.90
7494;DHT22;3788;49.902;8.590;2022-10-13T05:09:06;10.50;99.90
7494;DHT22;3788;49.902;8.590;2022-10-13T05:11:33;10.50;99.90
7494;DHT22;3788;49.902;8.590;2022-10-13T05:14:00;10.50;99.90
7494;DHT22;3788;49.902;8.590;2022-10-13T05:16:27;10.50;99.90
7494;DHT22;3788;49.902;8.590;2022-10-13T05:18:55;10.50;99.90
7494;DHT22;3788;49.902;8.590;2022-10-13T05:21:24;10.50;99.90
7494;DHT22;3788;49.902;8.590;2022-10-13T05:23:52;10.60;99.90
7494;DHT22;3788;49.902;8.590;2022-10-13T05:26:23;10.60;99.90
7494;DHT22;3788;49.902;8.590;2022-10-13T05:28:53;10.60;99.90
7494;DHT22;3788;49.902;8.590;2022-10-13T05:31:21;10.60;99.90
7494;DHT22;3788;49.902;8.590;2022-10-13T05:33:50;10.70;99.90
7494;DHT22;3788;49.902;8.590;2022-10-13T05:36:18;10.70;99.90
7494;DHT22;3788;49.902;8.590;2022-10-13T05:38:49;10.70;99.90
7494;DHT22;3788;49.902;8.590;2022-10-13T05:41:16;10.70;99.90
7494;DHT22;3788;49.902;8.590;2022-10-13T05:43:44;10.70;99.90
7494;DHT22;3788;49.902;8.590;2022-10-13T05:46:10;10.70;99.90
7494;DHT22;3788;49.902;8.590;2022-10-13T05:48:37;10.70;99.90
7494;DHT22;3788;49.902;8.590;2022-10-13T05:51:06;10.80;99.90
7494;DHT22;3788;49.902;8.590;2022-10-13T05:53:38;10.80;99.90
7494;DHT22;3788;49.902;8.590;2022-10-13T05:56:09;10.80;99.90
7494;DHT22;3788;49.902;8.590;2022-10-13T05:58:39;10.80;99.90
7494;DHT22;3788;49.902;8.590;2022-10-13T06:01:12;10.70;99.90
7494;DHT22;3788;49.902;8.590;2022-10-13T06:03:40;10.70;99.90
7494;DHT22;3788;49.902;8.590;2022-10-13T06:06:07;10.70;99.90
7494;DHT22;3788;49.902;8.590;2022-10-13T06:08:35;10.60;99.90
7494;DHT22;3788;49.902;8.590;2022-10-13T06:11:03;10.60;99.90
7494;DHT22;3788;49.902;8.590;2022-10-13T06:13:30;10.60;99.90
7494;DHT22;3788;49.902;8.590;2022-10-13T06:15:58;10.60;99.90
7494;DHT22;3788;49.902;8.590;2022-10-13T06:18:26;10.70;99.90
7494;DHT22;3788;49.902;8.590;2022-10-13T06:20:53;10.70;99.90
7494;DHT22;3788;49.902;8.590;2022-10-13T06:23:19;10.80;99.90
7494;DHT22;3788;49.902;8.590;2022-10-13T06:25:47;10.80;99.90
7494;DHT22;3788;49.902;8.590;2022-10-13T06:28:14;10.80;99.90
7494;DHT22;3788;49.902;8.590;2022-10-13T06:30:41;10.80;99.90
7494;DHT22;3788;49.902;8.590;2022-10-13T06:33:11;10.90;99.90
7494;DHT22;3788;49.902;8.590;2022-10-13T06:35:39;10.90;99.90
7494;DHT22;3788;49.902;8.590;2022-10-13T06:38:06;10.90;99.90
7494;DHT22;3788;49.902;8.590;2022-10-13T06:40:33;10.90;99.90
7494;DHT22;3788;49.902;8.590;2022-10-13T06:43:00;11.00;99.90
7494;DHT22;3788;49.902;8.590;2022-10-13T06:45:27;11.00;99.90
7494;DHT22;3788;49.902;8.590;2022-10-13T06:47:54;11.00;99.90
7494;DHT22;3788;49.902;8.590;2022-10-13T06:50:21;11.10;99.90
7494;DHT22;3788;49.902;8.590;2022-10-13T06:52:49;11.10;99.90
7494;DHT22;3788;49.902;8.590;2022-10-13T06:55:16;11.20;99.90
7494;DHT22;3788;49.902;8.590;2022-10-13T06:57:52;11.20;99.90
7494;DHT22;3788;49.902;8.590;2022-10-13T07:00:19;11.30;99.90
7494;DHT22;3788;49.902;8.590;2022-10-13T07:02:49;11.30;99.90
7494;DHT22;3788;49.902;8.590;2022-10-13T07:05:16;11.30;99.90
7494;DHT22;3788;49.902;8.590;2022-10-13T07:07:42;11.30;99.90
7494;DHT22;3788;49.902;8.590;2022-10-13T07:10:10;11.30;99.90
7494;DHT22;3788;49.902;8.590;2022-10-13T07:12:37;11.20;99.90
7494;DHT22;3788;49.902;8.590;2022-10-13T07:15:04;11.20;99.90
7494;DHT22;3788;49.902;8.590;2022-10-13T07:17:31;11.20;99.90
7494;DHT22;3788;49.902;8.590;2022-10-13T07:19:58;11.20;99.90
7494;DHT22;3788;49.902;8.590;2022-10-13T07:22:26;11.30;99.90
7494;DHT22;3788;49.902;8.590;2022-10-13T07:24:52;11.30;99.90
7494;DHT22;3788;49.902;8.590;2022-10-13T07:27:21;11.40;99.90
7494;DHT22;3788;49.902;8.590;2022-10-13T07:29:48;11.40;99.90
7494;DHT22;3788;49.902;8.590;2022-10-13T07:32:15;11.50;99.90
7494;DHT22;3788;49.902;8.590;2022-10-13T07:34:41;11.50;99.90
7494;DHT22;3788;49.902;8.590;2022-10-13T07:37:08;11.60;99.90
7494;DHT22;3788;49.902;8.590;2022-10-13T07:39:35;11.60;99.90
7494;DHT22;3788;49.902;8.590;2022-10-13T07:42:01;11.70;99.90
7494;DHT22;3788;49.902;8.590;2022-10-13T07:44:29;11.60;99.90
7494;DHT22;3788;49.902;8.590;2022-10-13T07:46:56;11.60;99.90
7494;DHT22;3788;49.902;8.590;2022-10-13T07:49:23;11.60;99.90
7494;DHT22;3788;49.902;8.590;2022-10-13T07:51:50;11.70;99.90
7494;DHT22;3788;49.902;8.590;2022-10-13T07:54:16;11.70;99.90
7494;DHT22;3788;49.902;8.590;2022-10-13T07:56:44;11.80;99.90
7494;DHT22;3788;49.902;8.590;2022-10-13T07:59:10;11.80;99.90
7494;DHT22;3788;49.902;8.590;2022-10-13T08:01:38;11.90;99.90
7494;DHT22;3788;49.902;8.590;2022-10-13T08:04:06;11.90;99.90
7494;DHT22;3788;49.902;8.590;2022-10-13T08:06:33;12.00;99.90
7494;DHT22;3788;49.902;8.590;2022-10-13T08:08:59;12.00;99.90
7494;DHT22;3788;49.902;8.590;2022-10-13T08:11:28;12.10;99.90
7494;DHT22;3788;49.902;8.590;2022-10-13T08:13:54;12.10;99.90
7494;DHT22;3788;49.902;8.590;2022-10-13T08:16:26;12.10;99.90
7494;DHT22;3788;49.902;8.590;2022-10-13T08:18:55;12.20;99.90
7494;DHT22;3788;49.902;8.590;2022-10-13T08:21:22;12.20;99.90
7494;DHT22;3788;49.902;8.590;2022-10-13T08:23:50;12.30;99.90
7494;DHT22;3788;49.902;8.590;2022-10-13T08:26:19;12.30;99.90
7494;DHT22;3788;49.902;8.590;2022-10-13T08:28:46;12.30;99.90
7494;DHT22;3788;49.902;8.590;2022-10-13T08:31:13;12.30;99.90
7494;DHT22;3788;49.902;8.590;2022-10-13T08:33:40;12.30;99.90
7494;DHT22;3788;49.902;8.590;2022-10-13T08:36:08;12.30;99.90
7494;DHT22;3788;49.902;8.590;2022-10-13T08:38:35;12.30;99.90
7494;DHT22;3788;49.902;8.590;2022-10-13T08:41:12;12.40;99.90
7494;DHT22;3788;49.902;8.590;2022-10-13T08:43:48;12.40;99.90
7494;DHT22;3788;49.902;8.590;2022-10-13T08:46:19;12.50;99.90
7494;DHT22;3788;49.902;8.590;2022-10-13T08:48:49;12.50;99.90
7494;DHT22;3788;49.902;8.590;2022-10-13T08:51:17;12.50;99.90
7494;DHT22;3788;49.902;8.590;2022-10-13T08:53:45;12.50;99.90
7494;DHT22;3788;49.902;8.590;2022-10-13T08:56:16;12.60;99.90
7494;DHT22;3788;49.902;8.590;2022-10-13T08:58:45;12.60;99.90
7494;DHT22;3788;49.902;8.590;2022-10-13T09:01:14;12.70;99.90
7494;DHT22;3788;49.902;8.590;2022-10-13T09:03:51;12.70;99.90
7494;DHT22;3788;49.902;8.590;2022-10-13T09:06:22;12.80;99.90
7494;DHT22;3788;49.902;8.590;2022-10-13T09:08:56;12.80;99.90
7494;DHT22;3788;49.902;8.590;2022-10-13T09:11:25;12.90;99.90
7494;DHT22;3788;49.902;8.590;2022-10-13T09:13:54;12.90;99.90
7494;DHT22;3788;49.902;8.590;2022-10-13T09:16:30;13.00;99.90
7494;DHT22;3788;49.902;8.590;2022-10-13T09:19:14;13.10;99.90
7494;DHT22;3788;49.902;8.590;2022-10-13T09:21:46;13.10;99.90
7494;DHT22;3788;49.902;8.590;2022-10-13T09:24:15;13.10;99.90
7494;DHT22;3788;49.902;8.590;2022-10-13T09:26:43;13.10;99.90
7494;DHT22;3788;49.902;8.590;2022-10-13T09:29:15;13.10;99.90
7494;DHT22;3788;49.902;8.590;2022-10-13T09:31:42;13.10;99.90
7494;DHT22;3788;49.902;8.590;2022-10-13T09:34:14;13.10;99.90
7494;DHT22;3788;49.902;8.590;2022-10-13T09:37:00;13.00;99.90
7494;DHT22;3788;49.902;8.590;2022-10-13T09:39:27;13.00;99.90
7494;DHT22;3788;49.902;8.590;2022-10-13T09:42:17;13.00;99.90
7494;DHT22;3788;49.902;8.590;2022-10-13T09:44:44;13.00;99.90
7494;DHT22;3788;49.902;8.590;2022-10-13T09:47:17;13.00;99.90
7494;DHT22;3788;49.902;8.590;2022-10-13T09:49:45;13.00;99.90
7494;DHT22;3788;49.902;8.590;2022-10-13T09:52:24;13.10;99.90
7494;DHT22;3788;49.902;8.590;2022-10-13T09:54:52;13.20;99.90
7494;DHT22;3788;49.902;8.590;2022-10-13T09:57:30;13.20;99.90
7494;DHT22;3788;49.902;8.590;2022-10-13T10:00:02;13.30;99.90
7494;DHT22;3788;49.902;8.590;2022-10-13T10:02:32;13.30;99.90
7494;DHT22;3788;49.902;8.590;2022-10-13T10:05:06;13.40;99.90
7494;DHT22;3788;49.902;8.590;2022-10-13T10:07:34;13.30;99.90
7494;DHT22;3788;49.902;8.590;2022-10-13T10:10:04;13.30;99.90
7494;DHT22;3788;49.902;8.590;2022-10-13T10:12:33;13.30;99.90
7494;DHT22;3788;49.902;8.590;2022-10-13T10:15:03;13.30;99.90
7494;DHT22;3788;49.902;8.590;2022-10-13T10:17:40;13.20;99.90
7494;DHT22;3788;49.902;8.590;2022-10-13T10:20:31;13.20;99.90
7494;DHT22;3788;49.902;8.590;2022-10-13T10:23:06;13.20;99.90
7494;DHT22;3788;49.902;8.590;2022-10-13T10:25:38;13.20;99.90
7494;DHT22;3788;49.902;8.590;2022-10-13T10:28:24;13.20;99.90
7494;DHT22;3788;49.902;8.590;2022-10-13T10:31:00;13.30;99.90
7494;DHT22;3788;49.902;8.590;2022-10-13T10:33:35;13.30;99.90
7494;DHT22;3788;49.902;8.590;2022-10-13T10:36:10;13.30;99.90
7494;DHT22;3788;49.902;8.590;2022-10-13T10:38:47;13.20;99.90
7494;DHT22;3788;49.902;8.590;2022-10-13T10:41:28;13.20;99.90
7494;DHT22;3788;49.902;8.590;2022-10-13T10:43:59;13.20;99.90
7494;DHT22;3788;49.902;8.590;2022-10-13T10:46:30;13.20;99.90
7494;DHT22;3788;49.902;8.590;2022-10-13T10:49:00;13.30;99.90
7494;DHT22;3788;49.902;8.590;2022-10-13T10:51:30;13.30;99.90
7494;DHT22;3788;49.902;8.590;2022-10-13T10:54:11;13.30;99.90
7494;DHT22;3788;49.902;8.590;2022-10-13T10:56:45;13.40;99.90
7494;DHT22;3788;49.902;8.590;2022-10-13T10:59:28;13.40;99.90
7494;DHT22;3788;49.902;8.590;2022-10-13T11:02:10;13.50;99.90
7494;DHT22;3788;49.902;8.590;2022-10-13T11:04:41;13.60;99.90
7494;DHT22;3788;49.902;8.590;2022-10-13T11:07:10;13.70;99.90
7494;DHT22;3788;49.902;8.590;2022-10-13T11:10:00;13.70;99.90
7494;DHT22;3788;49.902;8.590;2022-10-13T11:12:46;13.90;99.90
7494;DHT22;3788;49.902;8.590;2022-10-13T11:15:19;14.00;99.90
7494;DHT22;3788;49.902;8.590;2022-10-13T11:17:47;14.20;99.90
7494;DHT22;3788;49.902;8.590;2022-10-13T11:20:55;14.40;99.90
7494;DHT22;3788;49.902;8.590;2022-10-13T11:23:30;14.60;99.90
7494;DHT22;3788;49.902;8.590;2022-10-13T11:26:19;14.70;99.90
7494;DHT22;3788;49.902;8.590;2022-10-13T11:28:47;14.80;99.90
7494;DHT22;3788;49.902;8.590;2022-10-13T11:31:29;14.90;99.90
7494;DHT22;3788;49.902;8.590;2022-10-13T11:33:58;14.90;99.90
7494;DHT22;3788;49.902;8.590;2022-10-13T11:36:47;15.00;99.90
7494;DHT22;3788;49.902;8.590;2022-10-13T11:39:40;15.00;99.90
7494;DHT22;3788;49.902;8.590;2022-10-13T11:42:20;15.10;99.90
7494;DHT22;3788;49.902;8.590;2022-10-13T11:44:54;15.10;99.90
7494;DHT22;3788;49.902;8.590;2022-10-13T11:47:38;15.10;99.90
7494;DHT22;3788;49.902;8.590;2022-10-13T11:50:17;15.20;99.90
7494;DHT22;3788;49.902;8.590;2022-10-13T11:53:12;15.20;99.90
7494;DHT22;3788;49.902;8.590;2022-10-13T11:55:46;15.20;99.90
7494;DHT22;3788;49.902;8.590;2022-10-13T11:58:21;15.20;99.90
7494;DHT22;3788;49.902;8.590;2022-10-13T12:00:53;15.20;99.90
7494;DHT22;3788;49.902;8.590;2022-10-13T12:03:23;15.20;99.90
7494;DHT22;3788;49.902;8.590;2022-10-13T12:05:54;15.30;99.90
7494;DHT22;3788;49.902;8.590;2022-10-13T12:08:23;15.30;99.90
7494;DHT22;3788;49.902;8.590;2022-10-13T12:10:52;15.30;99.90
7494;DHT22;3788;49.902;8.590;2022-10-13T12:13:25;15.30;99.90
7494;DHT22;3788;49.902;8.590;2022-10-13T12:15:59;15.50;99.90
7494;DHT22;3788;49.902;8.590;2022-10-13T12:18:30;15.60;99.90
7494;DHT22;3788;49.902;8.590;2022-10-13T12:21:00;15.60;99.90
7494;DHT22;3788;49.902;8.590;2022-10-13T12:23:27;15.70;99.90
7494;DHT22;3788;49.902;8.590;2022-10-13T12:25:54;15.70;99.90
7494;DHT22;3788;49.902;8.590;2022-10-13T12:28:26;15.80;99.90
7494;DHT22;3788;49.902;8.590;2022-10-13T12:30:54;15.90;99.90
7494;DHT22;3788;49.902;8.590;2022-10-13T12:33:27;15.90;99.90
7494;DHT22;3788;49.902;8.590;2022-10-13T12:35:54;15.90;99.90
7494;DHT22;3788;49.902;8.590;2022-10-13T12:38:21;15.90;99.90
7494;DHT22;3788;49.902;8.590;2022-10-13T12:40:50;15.90;99.90
7494;DHT22;3788;49.902;8.590;2022-10-13T12:43:21;15.90;99.90
7494;DHT22;3788;49.902;8.590;2022-10-13T12:45:51;16.00;99.90
7494;DHT22;3788;49.902;8.590;2022-10-13T12:48:31;16.10;99.90
7494;DHT22;3788;49.902;8.590;2022-10-13T12:51:16;16.20;99.90
7494;DHT22;3788;49.902;8.590;2022-10-13T12:53:44;16.20;99.90
7494;DHT22;3788;49.902;8.590;2022-10-13T12:56:30;16.20;99.90
7494;DHT22;3788;49.902;8.590;2022-10-13T12:58:57;16.10;99.90
7494;DHT22;3788;49.902;8.590;2022-10-13T13:01:29;16.00;99.90
7494;DHT22;3788;49.902;8.590;2022-10-13T13:03:58;15.90;99.90
7494;DHT22;3788;49.902;8.590;2022-10-13T13:06:31;15.90;99.90
7494;DHT22;3788;49.902;8.590;2022-10-13T13:12:20;15.80;99.90
7494;DHT22;3788;49.902;8.590;2022-10-13T13:14:48;15.70;99.90
7494;DHT22;3788;49.902;8.590;2022-10-13T13:17:30;15.70;99.90
7494;DHT22;3788;49.902;8.590;2022-10-13T13:20:17;15.70;99.90
7494;DHT22;3788;49.902;8.590;2022-10-13T13:22:44;15.70;99.90
7494;DHT22;3788;49.902;8.590;2022-10-13T13:25:12;15.70;99.90
7494;DHT22;3788;49.902;8.590;2022-10-13T13:27:39;15.70;99.90
7494;DHT22;3788;49.902;8.590;2022-10-13T13:30:10;15.70;99.90
7494;DHT22;3788;49.902;8.590;2022-10-13T13:32:40;15.80;99.90
7494;DHT22;3788;49.902;8.590;2022-10-13T13:35:07;15.80;99.90
7494;DHT22;3788;49.902;8.590;2022-10-13T13:37:36;15.90;99.90
7494;DHT22;3788;49.902;8.590;2022-10-13T13:40:06;15.90;99.90
7494;DHT22;3788;49.902;8.590;2022-10-13T13:42:33;15.90;99.90
7494;DHT22;3788;49.902;8.590;2022-10-13T13:45:00;15.90;99.90
7494;DHT22;3788;49.902;8.590;2022-10-13T13:47:27;15.90;99.90
7494;DHT22;3788;49.902;8.590;2022-10-13T13:49:56;15.90;99.90
7494;DHT22;3788;49.902;8.590;2022-10-13T13:52:23;15.90;99.90
7494;DHT22;3788;49.902;8.590;2022-10-13T13:54:51;16.00;99.90
7494;DHT22;3788;49.902;8.590;2022-10-13T13:57:18;15.90;99.90
7494;DHT22;3788;49.902;8.590;2022-10-13T13:59:45;16.00;99.90
7494;DHT22;3788;49.902;8.590;2022-10-13T14:02:14;16.00;99.90
7494;DHT22;3788;49.902;8.590;2022-10-13T14:04:42;16.00;99.90
7494;DHT22;3788;49.902;8.590;2022-10-13T14:07:11;16.00;99.90
7494;DHT22;3788;49.902;8.590;2022-10-13T14:09:38;16.00;99.90
7494;DHT22;3788;49.902;8.590;2022-10-13T14:12:05;16.00;99.90
7494;DHT22;3788;49.902;8.590;2022-10-13T14:14:32;15.90;99.90
7494;DHT22;3788;49.902;8.590;2022-10-13T14:17:00;15.90;99.90
7494;DHT22;3788;49.902;8.590;2022-10-13T14:19:28;15.90;99.90
7494;DHT22;3788;49.902;8.590;2022-10-13T14:21:55;15.80;99.90
7494;DHT22;3788;49.902;8.590;2022-10-13T14:24:23;15.80;99.90
7494;DHT22;3788;49.902;8.590;2022-10-13T14:26:50;15.70;99.90
7494;DHT22;3788;49.902;8.590;2022-10-13T14:29:16;15.70;99.90
7494;DHT22;3788;49.902;8.590;2022-10-13T14:31:43;15.70;99.90
7494;DHT22;3788;49.902;8.590;2022-10-13T14:34:10;15.70;99.90
7494;DHT22;3788;49.902;8.590;2022-10-13T14:36:36;15.80;99.90
7494;DHT22;3788;49.902;8.590;2022-10-13T14:39:03;15.80;99.90
7494;DHT22;3788;49.902;8.590;2022-10-13T14:41:31;15.90;99.90
7494;DHT22;3788;49.902;8.590;2022-10-13T14:43:58;15.90;99.90
7494;DHT22;3788;49.902;8.590;2022-10-13T14:46:25;16.00;99.90
7494;DHT22;3788;49.902;8.590;2022-10-13T14:48:54;16.00;99.90
7494;DHT22;3788;49.902;8.590;2022-10-13T14:51:23;16.10;99.90
7494;DHT22;3788;49.902;8.590;2022-10-13T14:53:50;16.10;99.90
7494;DHT22;3788;49.902;8.590;2022-10-13T14:56:18;16.10;99.90
7494;DHT22;3788;49.902;8.590;2022-10-13T14:58:47;16.10;99.90
7494;DHT22;3788;49.902;8.590;2022-10-13T15:01:15;16.10;99.90
7494;DHT22;3788;49.902;8.590;2022-10-13T15:03:43;16.10;99.90
7494;DHT22;3788;49.902;8.590;2022-10-13T15:06:12;16.10;99.90
7494;DHT22;3788;49.902;8.590;2022-10-13T15:08:39;16.10;99.90
7494;DHT22;3788;49.902;8.590;2022-10-13T15:11:07;16.00;99.90
7494;DHT22;3788;49.902;8.590;2022-10-13T15:13:34;16.00;99.90
7494;DHT22;3788;49.902;8.590;2022-10-13T15:16:02;16.00;99.90
7494;DHT22;3788;49.902;8.590;2022-10-13T15:18:29;16.00;99.90
7494;DHT22;3788;49.902;8.590;2022-10-13T15:20:57;16.00;99.90
7494;DHT22;3788;49.902;8.590;2022-10-13T15:23:23;15.90;99.90
7494;DHT22;3788;49.902;8.590;2022-10-13T15:25:51;15.90;99.90
7494;DHT22;3788;49.902;8.590;2022-10-13T15:28:20;15.90;99.90
7494;DHT22;3788;49.902;8.590;2022-10-13T15:30:47;15.90;99.90
7494;DHT22;3788;49.902;8.590;2022-10-13T15:33:15;15.80;99.90
7494;DHT22;3788;49.902;8.590;2022-10-13T15:35:42;15.80;99.90
7494;DHT22;3788;49.902;8.590;2022-10-13T15:38:09;15.80;99.90
7494;DHT22;3788;49.902;8.590;2022-10-13T15:40:38;15.90;99.90
7494;DHT22;3788;49.902;8.590;2022-10-13T15:43:06;15.90;99.90
7494;DHT22;3788;49.902;8.590;2022-10-13T15:45:33;15.90;99.90
7494;DHT22;3788;49.902;8.590;2022-10-13T15:48:00;15.80;99.90
7494;DHT22;3788;49.902;8.590;2022-10-13T15:50:28;15.80;99.90
7494;DHT22;3788;49.902;8.590;2022-10-13T15:52:55;15.80;99.90
7494;DHT22;3788;49.902;8.590;2022-10-13T15:55:22;15.80;99.90
7494;DHT22;3788;49.902;8.590;2022-10-13T15:57:49;15.70;99.90
7494;DHT22;3788;49.902;8.590;2022-10-13T16:00:16;15.70;99.90
7494;DHT22;3788;49.902;8.590;2022-10-13T16:02:43;15.70;99.90
7494;DHT22;3788;49.902;8.590;2022-10-13T16:05:11;15.60;99.90
7494;DHT22;3788;49.902;8.590;2022-10-13T16:07:39;15.60;99.90
7494;DHT22;3788;49.902;8.590;2022-10-13T16:10:07;15.60;99.90
7494;DHT22;3788;49.902;8.590;2022-10-13T16:12:35;15.50;99.90
7494;DHT22;3788;49.902;8.590;2022-10-13T16:15:01;15.50;99.90
7494;DHT22;3788;49.902;8.590;2022-10-13T16:17:28;15.40;99.90
7494;DHT22;3788;49.902;8.590;2022-10-13T16:19:55;15.40;99.90
7494;DHT22;3788;49.902;8.590;2022-10-13T16:22:21;15.30;99.90
7494;DHT22;3788;49.902;8.590;2022-10-13T16:24:50;15.30;99.90